createdAt,value
2022-08-26T00:02:00.482Z,22.31
2022-08-26T00:05:06.176Z,22.31
2022-08-26T00:08:10.563Z,22.25
2022-08-26T00:11:16.234Z,22.17
2022-08-26T00:14:30.921Z,22.11
2022-08-26T00:17:34.465Z,22.09
2022-08-26T00:20:39.427Z,22.02
2022-08-26T00:23:46.097Z,22.03
2022-08-26T00:26:49.651Z,21.98
2022-08-26T00:29:52.946Z,21.96
2022-08-26T00:32:57.490Z,21.99
2022-08-26T00:36:02.248Z,21.97
2022-08-26T00:39:07.000Z,21.95
2022-08-26T00:42:10.514Z,21.94
2022-08-26T00:45:15.243Z,21.88
2022-08-26T00:48:22.831Z,21.84
2022-08-26T00:51:29.989Z,21.80
2022-08-26T00:54:40.206Z,21.74
2022-08-26T00:57:46.771Z,21.69
2022-08-26T01:00:50.327Z,21.64
2022-08-26T01:03:55.508Z,21.59
2022-08-26T01:07:01.267Z,21.58
2022-08-26T01:10:08.282Z,21.56
2022-08-26T01:13:12.789Z,21.61
2022-08-26T01:16:16.908Z,21.61
2022-08-26T01:19:25.107Z,21.65
2022-08-26T01:22:40.823Z,21.69
2022-08-26T01:25:50.037Z,21.70
2022-08-26T01:28:56.606Z,21.79
2022-08-26T01:32:00.822Z,21.78
2022-08-26T01:35:03.910Z,21.78
2022-08-26T01:38:08.248Z,21.76
2022-08-26T01:41:19.558Z,21.80
2022-08-26T01:44:27.428Z,21.82
2022-08-26T01:47:32.640Z,21.87
2022-08-26T01:50:37.185Z,21.88
2022-08-26T01:53:42.483Z,21.92
2022-08-26T01:56:50.852Z,21.90
2022-08-26T01:59:56.667Z,21.87
2022-08-26T02:03:14.293Z,21.87
2022-08-26T02:06:18.483Z,21.80
2022-08-26T02:09:25.959Z,21.77
2022-08-26T02:12:31.478Z,21.74
2022-08-26T02:15:35.351Z,21.67
2022-08-26T02:18:41.546Z,21.58
2022-08-26T02:21:51.305Z,21.55
2022-08-26T02:25:00.332Z,21.53
2022-08-26T02:28:03.698Z,21.51
2022-08-26T02:31:08.034Z,21.47
2022-08-26T02:34:16.820Z,21.40
2022-08-26T02:37:20.426Z,21.40
2022-08-26T02:40:32.429Z,21.39
2022-08-26T02:43:36.757Z,21.35
2022-08-26T02:46:40.389Z,21.31
2022-08-26T02:49:44.844Z,21.28
2022-08-26T02:52:50.883Z,21.24
2022-08-26T02:55:55.225Z,21.23
2022-08-26T02:58:58.194Z,21.24
2022-08-26T03:02:01.821Z,21.28
2022-08-26T03:05:06.060Z,21.33
2022-08-26T03:08:11.672Z,21.37
2022-08-26T03:11:16.465Z,21.41
2022-08-26T03:14:19.698Z,21.47
2022-08-26T03:17:23.752Z,21.44
2022-08-26T03:20:29.892Z,21.42
2022-08-26T03:23:34.191Z,21.38
2022-08-26T03:26:39.065Z,21.35
2022-08-26T03:29:59.778Z,21.33
2022-08-26T03:33:03.271Z,21.30
2022-08-26T03:36:08.704Z,21.30
2022-08-26T03:39:13.005Z,21.26
2022-08-26T03:42:17.656Z,21.25
2022-08-26T03:45:24.713Z,21.23
2022-08-26T03:48:27.767Z,21.24
2022-08-26T03:51:31.802Z,21.20
2022-08-26T03:54:37.389Z,21.21
2022-08-26T03:57:42.423Z,21.18
2022-08-26T04:00:45.639Z,21.18
2022-08-26T04:04:01.709Z,21.24
2022-08-26T04:07:06.158Z,21.26
2022-08-26T04:10:10.403Z,21.26
2022-08-26T04:13:15.659Z,21.35
2022-08-26T04:16:19.517Z,21.40
2022-08-26T04:19:23.645Z,21.40
2022-08-26T04:22:27.236Z,21.39
2022-08-26T04:25:32.798Z,21.38
2022-08-26T04:28:37.581Z,21.38
2022-08-26T04:31:40.878Z,21.37
2022-08-26T04:34:45.009Z,21.34
2022-08-26T04:37:48.916Z,21.45
2022-08-26T04:40:51.915Z,21.46
2022-08-26T04:43:57.119Z,21.51
2022-08-26T04:47:01.152Z,21.54
2022-08-26T04:50:08.317Z,21.52
2022-08-26T04:53:14.221Z,21.47
2022-08-26T04:56:17.346Z,21.54
2022-08-26T04:59:21.678Z,21.54
2022-08-26T05:02:24.789Z,21.61
2022-08-26T05:05:28.355Z,21.65
2022-08-26T05:08:31.410Z,21.60
2022-08-26T05:11:34.957Z,21.69
2022-08-26T05:14:41.424Z,21.69
2022-08-26T05:17:44.512Z,21.77
2022-08-26T05:20:50.832Z,21.85
2022-08-26T05:23:55.623Z,21.93
2022-08-26T05:26:58.629Z,21.97
2022-08-26T05:30:06.506Z,22.04
2022-08-26T05:33:10.312Z,22.11
2022-08-26T05:36:17.439Z,22.12
2022-08-26T05:39:21.384Z,22.15
2022-08-26T05:45:29.111Z,22.29
2022-08-26T05:48:32.126Z,22.33
2022-08-26T05:51:35.951Z,22.37
2022-08-26T05:54:40.265Z,22.46
2022-08-26T05:57:43.660Z,22.54
2022-08-26T06:00:58.169Z,22.52
2022-08-26T06:04:02.470Z,22.58
2022-08-26T06:07:05.885Z,22.64
2022-08-26T06:10:32.542Z,22.72
2022-08-26T06:13:36.510Z,22.80
2022-08-26T06:16:43.807Z,22.82
2022-08-26T06:19:47.419Z,22.84
2022-08-26T06:23:08.068Z,22.98
2022-08-26T06:26:12.911Z,23.16
2022-08-26T06:29:24.710Z,23.27
2022-08-26T06:32:29.192Z,23.29
2022-08-26T06:35:37.688Z,23.33
2022-08-26T06:38:41.842Z,23.33
2022-08-26T06:41:46.413Z,23.42
2022-08-26T06:44:53.689Z,23.49
2022-08-26T06:47:58.785Z,23.62
2022-08-26T06:51:08.925Z,23.72
2022-08-26T06:54:12.140Z,23.59
2022-08-26T06:57:16.800Z,23.75
2022-08-26T07:00:21.126Z,23.90
2022-08-26T07:03:25.448Z,23.93
2022-08-26T07:06:29.532Z,23.98
2022-08-26T07:09:33.251Z,24.11
2022-08-26T07:12:36.945Z,24.24
2022-08-26T07:15:41.912Z,24.40
2022-08-26T07:18:48.456Z,24.56
2022-08-26T07:21:52.856Z,24.80
2022-08-26T07:24:58.556Z,25.17
2022-08-26T07:28:02.594Z,25.22
2022-08-26T07:31:09.617Z,25.34
2022-08-26T07:34:14.512Z,25.47
2022-08-26T07:37:17.711Z,25.69
2022-08-26T07:40:22.168Z,25.72
2022-08-26T07:43:25.439Z,25.82
2022-08-26T07:46:30.262Z,26.00
2022-08-26T07:49:34.986Z,26.12
2022-08-26T07:52:38.637Z,26.23
2022-08-26T07:55:43.084Z,26.31
2022-08-26T07:58:50.878Z,26.34
2022-08-26T08:01:56.937Z,26.47
2022-08-26T08:05:01.453Z,26.53
2022-08-26T08:08:27.682Z,26.61
2022-08-26T08:11:32.431Z,26.46
2022-08-26T08:14:37.157Z,26.55
2022-08-26T08:17:40.876Z,26.59
2022-08-26T08:20:59.290Z,26.58
2022-08-26T08:24:08.864Z,26.69
2022-08-26T08:27:11.967Z,26.71
2022-08-26T08:30:20.929Z,26.73
2022-08-26T08:33:26.329Z,26.92
2022-08-26T08:36:32.157Z,27.02
2022-08-26T08:39:39.312Z,27.36
2022-08-26T08:42:48.795Z,27.63
2022-08-26T08:45:58.373Z,27.72
2022-08-26T08:49:04.218Z,27.62
2022-08-26T08:52:20.420Z,27.61
2022-08-26T08:55:25.895Z,27.72
2022-08-26T08:58:45.670Z,27.66
2022-08-26T09:02:03.039Z,27.57
2022-08-26T09:05:15.589Z,27.76
2022-08-26T09:08:26.001Z,28.04
2022-08-26T09:11:30.090Z,28.31
2022-08-26T09:14:33.491Z,28.45
2022-08-26T09:17:47.788Z,28.49
2022-08-26T09:20:57.416Z,28.53
2022-08-26T09:24:02.417Z,28.35
2022-08-26T09:27:05.908Z,28.59
2022-08-26T09:30:11.594Z,28.75
2022-08-26T09:33:19.557Z,28.95
2022-08-26T09:36:41.004Z,28.95
2022-08-26T09:39:46.241Z,29.09
2022-08-26T09:43:07.632Z,29.24
2022-08-26T09:46:16.214Z,29.38
2022-08-26T09:49:35.585Z,29.36
2022-08-26T09:52:40.665Z,29.39
2022-08-26T09:55:55.095Z,29.48
2022-08-26T09:58:59.447Z,29.62
2022-08-26T10:02:30.820Z,29.48
2022-08-26T10:05:42.428Z,29.80
2022-08-26T10:08:48.743Z,29.85
2022-08-26T10:11:58.650Z,30.11
2022-08-26T10:15:10.029Z,29.86
2022-08-26T10:18:20.220Z,29.97
2022-08-26T10:21:28.868Z,30.12
2022-08-26T10:24:40.240Z,30.28
2022-08-26T10:27:53.806Z,30.73
2022-08-26T10:31:02.529Z,30.62
2022-08-26T10:34:06.164Z,30.57
2022-08-26T10:37:16.595Z,31.01
2022-08-26T10:40:26.097Z,30.73
2022-08-26T10:43:37.508Z,30.71
2022-08-26T10:46:50.504Z,30.77
2022-08-26T10:50:00.431Z,31.05
2022-08-26T10:53:15.468Z,30.89
2022-08-26T10:56:33.571Z,30.62
2022-08-26T10:59:51.754Z,30.61
2022-08-26T11:03:03.890Z,30.47
2022-08-26T11:06:22.220Z,30.04
2022-08-26T11:09:46.680Z,29.80
2022-08-26T11:12:59.916Z,29.64
2022-08-26T11:16:05.458Z,29.55
2022-08-26T11:19:11.051Z,29.60
2022-08-26T11:22:27.534Z,29.60
2022-08-26T11:25:31.161Z,29.53
2022-08-26T11:28:37.126Z,29.52
2022-08-26T11:31:56.868Z,29.56
2022-08-26T11:35:03.870Z,29.54
2022-08-26T11:38:19.823Z,29.56
2022-08-26T11:41:29.115Z,29.35
2022-08-26T11:44:41.234Z,29.25
2022-08-26T11:47:54.658Z,29.09
2022-08-26T11:51:01.258Z,28.95
2022-08-26T11:54:12.490Z,28.89
2022-08-26T11:57:15.524Z,28.89
2022-08-26T12:00:24.636Z,28.69
2022-08-26T12:03:39.826Z,28.37
2022-08-26T12:06:50.254Z,28.05
2022-08-26T12:09:58.257Z,27.47
2022-08-26T12:13:06.214Z,26.94
2022-08-26T12:16:10.301Z,25.99
2022-08-26T12:19:27.661Z,24.61
2022-08-26T12:22:35.398Z,24.05
2022-08-26T12:25:39.699Z,23.91
2022-08-26T12:28:45.685Z,23.60
2022-08-26T12:31:49.677Z,23.41
2022-08-26T12:34:55.211Z,23.02
2022-08-26T12:37:59.181Z,22.97
2022-08-26T12:41:02.621Z,22.88
2022-08-26T12:44:05.949Z,22.74
2022-08-26T12:47:20.470Z,22.61
2022-08-26T12:50:38.276Z,22.39
2022-08-26T12:53:44.420Z,22.31
2022-08-26T12:56:47.544Z,22.21
2022-08-26T12:59:55.048Z,22.12
2022-08-26T13:02:58.632Z,21.97
2022-08-26T13:06:27.246Z,21.93
2022-08-26T13:09:32.001Z,21.93
2022-08-26T13:12:37.299Z,21.67
2022-08-26T13:15:40.921Z,21.45
2022-08-26T13:18:44.106Z,21.37
2022-08-26T13:21:52.884Z,21.29
2022-08-26T13:24:57.915Z,21.36
2022-08-26T13:28:00.945Z,21.44
2022-08-26T13:31:05.603Z,21.47
2022-08-26T13:34:10.756Z,21.54
2022-08-26T13:37:17.219Z,21.51
2022-08-26T13:40:20.371Z,21.37
2022-08-26T13:43:23.532Z,21.25
2022-08-26T13:46:26.967Z,21.21
2022-08-26T13:49:30.078Z,21.26
2022-08-26T13:52:34.547Z,21.23
2022-08-26T13:55:37.633Z,21.21
2022-08-26T13:58:40.723Z,21.21
2022-08-26T14:01:43.712Z,21.25
2022-08-26T14:04:46.815Z,21.19
2022-08-26T14:08:02.275Z,21.20
2022-08-26T14:11:08.022Z,21.19
2022-08-26T14:14:11.020Z,21.23
2022-08-26T14:17:19.463Z,21.27
2022-08-26T14:20:28.265Z,21.44
2022-08-26T14:23:33.013Z,21.32
2022-08-26T14:26:36.030Z,21.38
2022-08-26T14:29:39.531Z,21.50
2022-08-26T14:32:47.095Z,21.52
2022-08-26T14:35:50.308Z,21.50
2022-08-26T14:38:56.071Z,21.39
2022-08-26T14:42:00.174Z,21.37
2022-08-26T14:45:07.118Z,21.28
2022-08-26T14:48:10.725Z,21.36
2022-08-26T14:51:13.851Z,21.41
2022-08-26T14:54:19.741Z,21.57
2022-08-26T14:57:22.723Z,21.58
2022-08-26T15:00:25.873Z,21.64
2022-08-26T15:03:28.855Z,21.43
2022-08-26T15:06:33.117Z,21.19
2022-08-26T15:09:38.634Z,20.94
2022-08-26T15:12:42.906Z,20.87
2022-08-26T15:15:46.923Z,20.81
2022-08-26T15:18:51.424Z,20.79
2022-08-26T15:21:54.990Z,20.72
2022-08-26T15:24:59.450Z,20.69
2022-08-26T15:28:02.474Z,20.77
2022-08-26T15:31:06.166Z,20.80
2022-08-26T15:34:16.481Z,20.86
2022-08-26T15:37:20.214Z,20.97
2022-08-26T15:40:26.836Z,20.97
2022-08-26T15:43:29.962Z,21.08
2022-08-26T15:46:34.164Z,21.05
2022-08-26T15:49:38.570Z,21.05
2022-08-26T15:52:41.819Z,21.06
2022-08-26T15:55:46.579Z,21.00
2022-08-26T15:58:50.511Z,20.90
2022-08-26T16:01:53.611Z,20.76
2022-08-26T16:04:56.650Z,20.76
2022-08-26T16:08:03.452Z,20.77
2022-08-26T16:11:07.792Z,20.82
2022-08-26T16:14:10.804Z,20.82
2022-08-26T16:17:14.119Z,20.87
2022-08-26T16:20:17.443Z,20.85
2022-08-26T16:23:20.668Z,20.88
2022-08-26T16:26:29.027Z,20.86
2022-08-26T16:29:32.555Z,20.73
2022-08-26T16:32:35.877Z,20.76
2022-08-26T16:35:39.605Z,20.71
2022-08-26T16:38:47.651Z,20.66
2022-08-26T16:41:51.923Z,20.60
2022-08-26T16:44:54.915Z,20.68
2022-08-26T16:47:59.512Z,20.76
2022-08-26T16:51:02.519Z,20.82
2022-08-26T16:54:06.051Z,20.87
2022-08-26T16:57:13.599Z,20.92
2022-08-26T17:00:22.016Z,20.95
2022-08-26T17:03:24.983Z,21.00
2022-08-26T17:06:28.058Z,21.04
2022-08-26T17:09:31.434Z,21.05
2022-08-26T17:12:37.283Z,21.05
2022-08-26T17:15:40.302Z,21.01
2022-08-26T17:18:43.372Z,20.97
2022-08-26T17:21:48.002Z,21.05
2022-08-26T17:24:50.983Z,21.03
2022-08-26T17:31:01.099Z,21.02
2022-08-26T17:34:05.007Z,21.08
2022-08-26T17:37:08.253Z,20.99
2022-08-26T17:40:16.676Z,21.03
2022-08-26T17:43:21.065Z,21.01
2022-08-26T17:46:24.199Z,21.08
2022-08-26T17:49:27.895Z,20.99
2022-08-26T17:52:31.511Z,21.02
2022-08-26T17:55:34.716Z,21.02
2022-08-26T17:58:39.785Z,21.06
2022-08-26T18:01:43.552Z,20.93
2022-08-26T18:04:47.099Z,20.97
2022-08-26T18:07:50.161Z,20.94
2022-08-26T18:10:53.203Z,20.88
2022-08-26T18:13:57.764Z,20.96
2022-08-26T18:17:00.950Z,20.92
2022-08-26T18:20:04.359Z,20.90
2022-08-26T18:23:07.863Z,20.93
2022-08-26T18:26:11.273Z,20.95
2022-08-26T18:29:19.454Z,20.91
2022-08-26T18:32:22.452Z,20.85
2022-08-26T18:35:28.313Z,20.84
2022-08-26T18:38:31.590Z,20.79
2022-08-26T18:41:43.282Z,20.73
2022-08-26T18:44:51.680Z,20.73
2022-08-26T18:47:54.697Z,20.68
2022-08-26T18:51:00.408Z,20.62
2022-08-26T18:54:06.415Z,20.64
2022-08-26T18:57:09.572Z,20.65
2022-08-26T19:00:15.151Z,20.62
2022-08-26T19:03:19.255Z,20.59
2022-08-26T19:06:24.795Z,20.53
2022-08-26T19:09:27.875Z,20.58
2022-08-26T19:12:31.712Z,20.53
2022-08-26T19:15:40.521Z,20.63
2022-08-26T19:18:43.796Z,20.63
2022-08-26T19:21:47.895Z,20.67
2022-08-26T19:24:51.082Z,20.62
2022-08-26T19:27:54.039Z,20.60
2022-08-26T19:30:58.480Z,20.54
2022-08-26T19:34:01.772Z,20.56
2022-08-26T19:37:04.758Z,20.53
2022-08-26T19:40:08.955Z,20.53
2022-08-26T19:43:12.565Z,20.59
2022-08-26T19:46:19.914Z,20.66
2022-08-26T19:49:22.965Z,20.61
2022-08-26T19:52:29.808Z,20.51
2022-08-26T19:55:33.675Z,20.53
2022-08-26T19:58:36.652Z,20.57
2022-08-26T20:01:41.125Z,20.59
2022-08-26T20:04:44.666Z,20.62
2022-08-26T20:07:48.236Z,20.57
2022-08-26T20:10:52.434Z,20.53
2022-08-26T20:13:57.124Z,20.40
2022-08-26T20:17:01.546Z,20.45
2022-08-26T20:20:33.119Z,20.38
2022-08-26T20:23:36.939Z,20.46
2022-08-26T20:26:43.711Z,20.43
2022-08-26T20:29:46.841Z,20.44
2022-08-26T20:32:51.159Z,20.34
2022-08-26T20:35:54.152Z,20.28
2022-08-26T20:38:58.031Z,20.39
2022-08-26T20:42:01.048Z,20.38
2022-08-26T20:45:04.624Z,20.41
2022-08-26T20:48:09.154Z,20.39
2022-08-26T20:51:12.305Z,20.44
2022-08-26T20:54:15.372Z,20.45
2022-08-26T20:57:18.431Z,20.45
2022-08-26T21:00:22.947Z,20.44
2022-08-26T21:03:30.956Z,20.38
2022-08-26T21:06:34.648Z,20.39
2022-08-26T21:09:37.676Z,20.33
2022-08-26T21:12:41.373Z,20.40
2022-08-26T21:15:44.484Z,20.33
2022-08-26T21:18:49.897Z,20.40
2022-08-26T21:21:52.910Z,20.40
2022-08-26T21:24:56.016Z,20.34
2022-08-26T21:27:59.009Z,20.36
2022-08-26T21:31:04.537Z,20.38
2022-08-26T21:34:09.285Z,20.39
2022-08-26T21:37:16.507Z,20.46
2022-08-26T21:40:20.205Z,20.44
2022-08-26T21:43:33.706Z,20.41
2022-08-26T21:46:38.434Z,20.30
2022-08-26T21:49:43.263Z,20.33
2022-08-26T21:52:46.649Z,20.30
2022-08-26T21:55:49.858Z,20.27
2022-08-26T21:58:54.886Z,20.27
2022-08-26T22:01:57.998Z,20.24
2022-08-26T22:05:02.323Z,20.17
2022-08-26T22:08:05.646Z,20.09
2022-08-26T22:11:09.548Z,20.16
2022-08-26T22:14:12.997Z,20.21
2022-08-26T22:17:16.939Z,20.21
2022-08-26T22:20:23.912Z,20.06
2022-08-26T22:23:28.045Z,20.15
2022-08-26T22:26:33.339Z,20.10
2022-08-26T22:29:36.325Z,19.99
2022-08-26T22:32:40.340Z,20.05
2022-08-26T22:35:48.256Z,19.98
2022-08-26T22:38:51.837Z,20.05
2022-08-26T22:41:56.843Z,20.02
2022-08-26T22:44:59.947Z,19.99
2022-08-26T22:48:05.075Z,19.91
2022-08-26T22:51:09.520Z,19.92
2022-08-26T22:54:12.580Z,19.93
2022-08-26T22:57:15.571Z,19.89
2022-08-26T23:00:18.555Z,19.88
2022-08-26T23:03:21.832Z,19.84
2022-08-26T23:06:27.059Z,19.83
2022-08-26T23:09:30.028Z,19.83
2022-08-26T23:12:33.022Z,19.90
2022-08-26T23:15:36.474Z,19.96
2022-08-26T23:18:39.960Z,19.92
2022-08-26T23:21:44.451Z,19.96
2022-08-26T23:24:47.445Z,19.89
2022-08-26T23:27:51.343Z,19.95
2022-08-26T23:30:54.572Z,19.92
2022-08-26T23:34:14.908Z,19.91
2022-08-26T23:37:19.833Z,19.93
2022-08-26T23:40:29.536Z,19.97
2022-08-26T23:43:32.591Z,19.90
2022-08-26T23:46:36.688Z,19.90
2022-08-26T23:49:40.063Z,19.97
2022-08-26T23:53:02.445Z,19.88
2022-08-26T23:56:05.560Z,19.90
2022-08-26T23:59:09.139Z,19.92
